createdAt,value
2019-01-08T00:01:25.507Z,94.40
2019-01-08T00:03:53.753Z,94.50
2019-01-08T00:06:21.954Z,94.50
2019-01-08T00:08:50.164Z,94.60
2019-01-08T00:11:18.386Z,94.80
2019-01-08T00:13:46.591Z,94.90
2019-01-08T00:16:14.785Z,95.00
2019-01-08T00:18:43.053Z,95.20
2019-01-08T00:21:11.246Z,95.40
2019-01-08T00:23:39.442Z,95.90
2019-01-08T00:26:07.658Z,95.80
2019-01-08T00:28:42.871Z,96.00
2019-01-08T00:31:05.791Z,96.30
2019-01-08T00:33:34.031Z,96.20
2019-01-08T00:36:02.239Z,96.60
2019-01-08T00:38:30.443Z,96.70
2019-01-08T00:40:59.595Z,96.80
2019-01-08T00:43:27.818Z,96.80
2019-01-08T00:45:56.022Z,96.90
2019-01-08T00:48:24.254Z,96.80
2019-01-08T00:50:52.462Z,96.70
2019-01-08T00:53:21.231Z,96.80
2019-01-08T00:55:50.066Z,96.70
2019-01-08T00:58:18.271Z,96.80
2019-01-08T01:00:46.475Z,96.90
2019-01-08T01:03:14.703Z,97.00
2019-01-08T01:05:42.942Z,97.10
2019-01-08T01:08:11.151Z,97.10
2019-01-08T01:10:39.371Z,97.10
2019-01-08T01:13:07.578Z,97.20
2019-01-08T01:15:35.779Z,97.30
2019-01-08T01:18:04.008Z,97.40
2019-01-08T01:20:32.198Z,97.50
2019-01-08T01:23:00.402Z,97.60
2019-01-08T01:25:28.627Z,97.70
2019-01-08T01:27:56.849Z,97.80
2019-01-08T01:30:25.054Z,97.90
2019-01-08T01:32:53.280Z,98.00
2019-01-08T01:35:21.479Z,98.10
2019-01-08T01:37:49.683Z,98.20
2019-01-08T01:40:17.911Z,98.20
2019-01-08T01:42:46.107Z,98.20
2019-01-08T01:45:14.303Z,98.20
2019-01-08T01:47:42.554Z,98.20
2019-01-08T01:50:10.764Z,98.20
2019-01-08T01:52:38.987Z,98.20
2019-01-08T01:55:07.272Z,98.30
2019-01-08T01:57:35.483Z,98.70
2019-01-08T02:00:04.624Z,98.30
2019-01-08T02:02:32.844Z,98.20
2019-01-08T02:05:01.051Z,98.30
2019-01-08T02:07:29.256Z,98.30
2019-01-08T02:09:57.495Z,98.30
2019-01-08T02:12:25.695Z,98.60
2019-01-08T02:14:54.154Z,98.70
2019-01-08T02:17:22.390Z,98.50
2019-01-08T02:19:50.586Z,98.50
2019-01-08T02:22:18.789Z,98.50
2019-01-08T02:24:47.028Z,98.60
2019-01-08T02:27:15.242Z,98.60
2019-01-08T02:29:43.438Z,98.60
2019-01-08T02:32:11.673Z,98.60
2019-01-08T02:34:39.872Z,98.60
2019-01-08T02:37:08.075Z,98.60
2019-01-08T02:39:36.295Z,98.60
2019-01-08T02:42:04.564Z,98.50
2019-01-08T02:44:32.841Z,98.60
2019-01-08T02:47:01.179Z,98.60
2019-01-08T02:49:29.390Z,98.60
2019-01-08T02:51:57.603Z,98.50
2019-01-08T02:54:25.945Z,98.60
2019-01-08T02:56:54.227Z,98.60
2019-01-08T02:59:25.246Z,98.60
2019-01-08T03:01:52.395Z,98.50
2019-01-08T03:04:20.594Z,98.50
2019-01-08T03:06:48.810Z,98.50
2019-01-08T03:09:17.031Z,98.60
2019-01-08T03:11:45.237Z,98.70
2019-01-08T03:14:13.435Z,98.50
2019-01-08T03:16:41.664Z,98.60
2019-01-08T03:19:09.883Z,98.70
2019-01-08T03:21:38.097Z,98.60
2019-01-08T03:24:06.332Z,98.60
2019-01-08T03:26:34.531Z,98.70
2019-01-08T03:29:02.740Z,98.70
2019-01-08T03:31:30.982Z,98.60
2019-01-08T03:33:59.180Z,98.60
2019-01-08T03:36:27.389Z,98.60
2019-01-08T03:38:55.614Z,98.60
2019-01-08T03:41:23.818Z,98.50
2019-01-08T03:43:52.029Z,98.50
2019-01-08T03:46:20.299Z,98.50
2019-01-08T03:48:48.510Z,98.50
2019-01-08T03:51:16.711Z,98.50
2019-01-08T03:53:44.943Z,98.40
2019-01-08T03:56:13.148Z,98.40
2019-01-08T03:58:41.346Z,98.50
2019-01-08T04:01:09.602Z,98.70
2019-01-08T04:03:37.808Z,98.70
2019-01-08T04:06:06.011Z,98.50
2019-01-08T04:08:36.144Z,98.50
2019-01-08T04:11:04.319Z,98.60
2019-01-08T04:13:32.759Z,98.50
2019-01-08T04:16:01.030Z,98.50
2019-01-08T04:18:29.234Z,98.60
2019-01-08T04:20:57.430Z,98.60
2019-01-08T04:23:25.654Z,98.40
2019-01-08T04:25:53.858Z,98.30
2019-01-08T04:28:22.093Z,98.40
2019-01-08T04:30:50.290Z,98.30
2019-01-08T04:33:18.478Z,98.20
2019-01-08T04:35:46.717Z,98.20
2019-01-08T04:38:14.914Z,98.20
2019-01-08T04:40:43.179Z,98.60
2019-01-08T04:43:11.383Z,98.40
2019-01-08T04:45:39.586Z,98.20
2019-01-08T04:48:07.811Z,98.00
2019-01-08T04:50:36.013Z,98.20
2019-01-08T04:53:04.243Z,98.10
2019-01-08T04:55:32.443Z,98.10
2019-01-08T04:58:00.643Z,98.10
2019-01-08T05:00:28.863Z,98.20
2019-01-08T05:02:57.072Z,98.30
2019-01-08T05:05:25.294Z,98.30
2019-01-08T05:07:53.499Z,98.30
2019-01-08T05:10:21.722Z,98.50
2019-01-08T05:12:49.972Z,98.40
2019-01-08T05:15:18.170Z,98.30
2019-01-08T05:17:46.407Z,98.40
2019-01-08T05:20:14.610Z,98.40
2019-01-08T05:22:42.824Z,98.30
2019-01-08T05:25:11.070Z,98.30
2019-01-08T05:27:39.275Z,98.00
2019-01-08T05:30:10.040Z,98.30
2019-01-08T05:32:38.246Z,98.30
2019-01-08T05:35:06.422Z,98.30
2019-01-08T05:37:34.644Z,98.30
2019-01-08T05:40:02.930Z,98.20
2019-01-08T05:42:31.166Z,98.30
2019-01-08T05:44:59.389Z,98.30
2019-01-08T05:47:27.591Z,98.30
2019-01-08T05:49:55.807Z,98.00
2019-01-08T05:52:24.021Z,98.00
2019-01-08T05:54:52.258Z,98.20
2019-01-08T05:57:20.482Z,98.20
2019-01-08T05:59:48.670Z,98.20
2019-01-08T06:02:16.888Z,98.20
2019-01-08T06:04:45.086Z,98.00
2019-01-08T06:07:13.323Z,97.90
2019-01-08T06:09:41.541Z,97.70
2019-01-08T06:12:17.558Z,98.00
2019-01-08T06:14:45.766Z,98.00
2019-01-08T06:17:13.974Z,98.50
2019-01-08T06:19:42.195Z,98.20
2019-01-08T06:22:10.475Z,98.20
2019-01-08T06:24:38.699Z,98.00
2019-01-08T06:27:07.028Z,98.00
2019-01-08T06:29:35.233Z,97.90
2019-01-08T06:32:03.440Z,98.00
2019-01-08T06:34:31.666Z,98.00
2019-01-08T06:37:01.801Z,98.20
2019-01-08T06:39:30.002Z,98.10
2019-01-08T06:41:58.239Z,98.30
2019-01-08T06:44:26.471Z,97.90
2019-01-08T06:46:54.675Z,97.90
2019-01-08T06:49:22.903Z,97.80
2019-01-08T06:51:51.127Z,97.80
2019-01-08T06:54:19.326Z,97.80
2019-01-08T06:56:47.567Z,97.60
2019-01-08T06:59:15.786Z,97.60
2019-01-08T07:01:44.029Z,97.70
2019-01-08T07:04:12.324Z,97.70
2019-01-08T07:06:40.526Z,97.60
2019-01-08T07:09:08.739Z,97.60
2019-01-08T07:11:36.970Z,97.50
2019-01-08T07:14:05.175Z,97.70
2019-01-08T07:16:33.385Z,97.50
2019-01-08T07:19:01.644Z,97.60
2019-01-08T07:21:29.928Z,97.80
2019-01-08T07:23:58.143Z,97.80
2019-01-08T07:26:26.379Z,97.70
2019-01-08T07:28:54.592Z,98.00
2019-01-08T07:31:22.878Z,98.00
2019-01-08T07:33:51.090Z,97.70
2019-01-08T07:36:19.290Z,97.70
2019-01-08T07:38:48.079Z,97.70
2019-01-08T07:41:16.343Z,97.90
2019-01-08T07:43:44.529Z,97.80
2019-01-08T07:46:12.723Z,97.80
2019-01-08T07:48:40.950Z,97.80
2019-01-08T07:51:09.146Z,97.80
2019-01-08T07:53:37.350Z,97.50
2019-01-08T07:56:05.579Z,97.60
2019-01-08T07:58:33.779Z,97.70
2019-01-08T08:01:02.056Z,97.80
2019-01-08T08:03:30.311Z,97.70
2019-01-08T08:05:58.513Z,98.00
2019-01-08T08:08:26.752Z,98.00
2019-01-08T08:10:54.971Z,98.00
2019-01-08T08:13:23.173Z,98.00
2019-01-08T08:15:51.392Z,98.00
2019-01-08T08:18:19.619Z,97.80
2019-01-08T08:20:47.836Z,97.80
2019-01-08T08:23:17.755Z,97.60
2019-01-08T08:25:46.087Z,97.60
2019-01-08T08:28:14.287Z,97.80
2019-01-08T08:30:42.511Z,98.00
2019-01-08T08:33:10.723Z,97.70
2019-01-08T08:35:38.935Z,97.70
2019-01-08T08:38:07.134Z,97.20
2019-01-08T08:40:35.363Z,97.30
2019-01-08T08:43:03.567Z,97.30
2019-01-08T08:45:31.776Z,97.20
2019-01-08T08:48:00.001Z,97.10
2019-01-08T08:50:28.217Z,97.40
2019-01-08T08:52:56.472Z,96.70
2019-01-08T08:55:24.702Z,96.80
2019-01-08T08:57:52.910Z,96.20
2019-01-08T09:00:22.550Z,96.10
2019-01-08T09:02:50.774Z,96.10
2019-01-08T09:05:18.981Z,96.60
2019-01-08T09:07:47.175Z,96.20
2019-01-08T09:10:15.434Z,96.30
2019-01-08T09:12:43.630Z,96.20
2019-01-08T09:15:11.850Z,96.50
2019-01-08T09:17:40.078Z,96.50
2019-01-08T09:20:09.728Z,96.70
2019-01-08T09:22:37.942Z,96.80
2019-01-08T09:25:06.999Z,97.10
2019-01-08T09:27:35.214Z,97.30
2019-01-08T09:30:04.241Z,97.20
2019-01-08T09:32:32.479Z,97.10
2019-01-08T09:35:00.755Z,97.20
2019-01-08T09:37:28.983Z,97.20
2019-01-08T09:39:57.264Z,97.50
2019-01-08T09:42:25.523Z,97.50
2019-01-08T09:44:53.770Z,97.70
2019-01-08T09:47:21.998Z,97.50
2019-01-08T09:49:50.206Z,97.50
2019-01-08T09:52:18.415Z,97.60
2019-01-08T09:54:48.404Z,97.10
2019-01-08T09:57:16.617Z,97.50
2019-01-08T09:59:45.727Z,97.40
2019-01-08T10:02:13.971Z,97.30
2019-01-08T10:04:42.179Z,97.30
2019-01-08T10:07:10.382Z,97.40
2019-01-08T10:09:38.610Z,97.50
2019-01-08T10:12:06.854Z,97.60
2019-01-08T10:14:35.059Z,97.60
2019-01-08T10:17:03.275Z,97.50
2019-01-08T10:19:31.482Z,97.30
2019-01-08T10:21:59.678Z,97.20
2019-01-08T10:24:33.715Z,96.80
2019-01-08T10:27:01.952Z,96.90
2019-01-08T10:29:30.240Z,97.00
2019-01-08T10:31:58.430Z,97.20
2019-01-08T10:34:26.618Z,96.90
2019-01-08T10:36:54.838Z,97.00
2019-01-08T10:39:23.970Z,96.90
2019-01-08T10:41:52.170Z,97.30
2019-01-08T10:44:20.402Z,97.10
2019-01-08T10:46:48.687Z,97.50
2019-01-08T10:49:16.883Z,97.40
2019-01-08T10:51:45.127Z,97.10
2019-01-08T10:54:13.323Z,96.50
2019-01-08T10:56:41.530Z,97.00
2019-01-08T10:59:09.774Z,96.80
2019-01-08T11:01:40.643Z,96.60
2019-01-08T11:04:08.146Z,95.90
2019-01-08T11:06:36.371Z,96.10
2019-01-08T11:09:05.515Z,96.50
2019-01-08T11:11:34.407Z,96.40
2019-01-08T11:14:02.824Z,95.90
2019-01-08T11:16:31.026Z,96.00
2019-01-08T11:18:59.247Z,95.90
2019-01-08T11:21:27.461Z,96.00
2019-01-08T11:23:55.668Z,95.70
2019-01-08T11:26:23.874Z,94.80
2019-01-08T11:28:52.100Z,94.70
2019-01-08T11:31:20.299Z,95.00
2019-01-08T11:33:48.863Z,95.00
2019-01-08T11:36:17.085Z,94.80
2019-01-08T11:38:45.276Z,94.90
2019-01-08T11:41:13.470Z,94.70
2019-01-08T11:43:41.696Z,94.90
2019-01-08T11:46:09.908Z,94.40
2019-01-08T11:48:38.104Z,94.90
2019-01-08T11:51:06.350Z,94.90
2019-01-08T11:53:34.562Z,94.40
2019-01-08T11:56:02.807Z,94.80
2019-01-08T11:58:31.031Z,94.90
2019-01-08T12:00:59.248Z,94.40
2019-01-08T12:03:28.434Z,94.50
2019-01-08T12:05:57.410Z,94.60
2019-01-08T12:08:25.824Z,95.10
2019-01-08T12:10:54.014Z,94.80
2019-01-08T12:13:22.222Z,94.50
2019-01-08T12:15:51.352Z,94.60
2019-01-08T12:18:19.558Z,95.00
2019-01-08T12:20:47.780Z,94.60
2019-01-08T12:23:15.977Z,95.20
2019-01-08T12:25:44.171Z,95.20
2019-01-08T12:28:12.412Z,94.90
2019-01-08T12:30:40.610Z,94.70
2019-01-08T12:33:08.833Z,95.10
2019-01-08T12:35:37.031Z,95.30
2019-01-08T12:38:05.250Z,95.30
2019-01-08T12:40:33.449Z,95.00
2019-01-08T12:43:01.646Z,95.00
2019-01-08T12:45:29.891Z,95.10
2019-01-08T12:47:58.082Z,95.00
2019-01-08T12:50:26.287Z,94.80
2019-01-08T12:52:54.494Z,94.30
2019-01-08T12:55:22.683Z,94.50
2019-01-08T12:57:50.910Z,94.60
2019-01-08T13:00:19.108Z,94.70
2019-01-08T13:02:47.294Z,94.40
2019-01-08T13:05:15.519Z,94.60
2019-01-08T13:07:43.715Z,94.30
2019-01-08T13:10:11.940Z,94.30
2019-01-08T13:12:40.138Z,94.30
2019-01-08T13:15:08.351Z,94.10
2019-01-08T13:17:56.006Z,94.20
2019-01-08T13:20:24.195Z,94.10
2019-01-08T13:22:52.429Z,94.70
2019-01-08T13:25:20.630Z,94.40
2019-01-08T13:27:48.827Z,94.30
2019-01-08T13:30:17.042Z,94.20
2019-01-08T13:32:45.233Z,94.00
2019-01-08T13:35:15.612Z,94.10
2019-01-08T13:37:43.394Z,94.00
2019-01-08T13:40:11.612Z,93.90
2019-01-08T13:42:39.831Z,93.40
2019-01-08T13:45:08.290Z,94.10
2019-01-08T13:47:36.518Z,93.50
2019-01-08T13:50:06.448Z,93.40
2019-01-08T13:52:34.654Z,93.30
2019-01-08T13:55:02.867Z,93.00
2019-01-08T13:57:31.058Z,93.00
2019-01-08T13:59:59.279Z,92.90
2019-01-08T14:02:31.799Z,93.20
2019-01-08T14:04:57.394Z,93.70
2019-01-08T14:07:25.628Z,93.80
2019-01-08T14:09:53.815Z,93.70
2019-01-08T14:12:22.059Z,94.50
2019-01-08T14:14:50.295Z,94.20
2019-01-08T14:17:18.504Z,94.10
2019-01-08T14:19:46.700Z,94.90
2019-01-08T14:22:14.935Z,94.50
2019-01-08T14:24:43.131Z,94.70
2019-01-08T14:27:11.872Z,94.60
2019-01-08T14:29:40.418Z,94.90
2019-01-08T14:32:08.615Z,95.00
2019-01-08T14:34:36.815Z,95.20
2019-01-08T14:37:05.051Z,95.60
2019-01-08T14:39:33.242Z,95.60
2019-01-08T14:42:01.446Z,95.80
2019-01-08T14:44:29.671Z,95.70
2019-01-08T14:46:57.912Z,95.90
2019-01-08T14:49:26.123Z,96.00
2019-01-08T14:51:54.338Z,96.10
2019-01-08T14:54:22.526Z,96.20
2019-01-08T14:56:50.727Z,96.30
2019-01-08T14:59:18.970Z,96.30
2019-01-08T15:01:48.123Z,96.30
2019-01-08T15:04:16.314Z,96.30
2019-01-08T15:06:44.530Z,96.30
2019-01-08T15:09:12.763Z,96.30
2019-01-08T15:11:44.929Z,95.90
2019-01-08T15:14:13.463Z,96.00
2019-01-08T15:16:41.663Z,96.20
2019-01-08T15:19:09.889Z,95.90
2019-01-08T15:21:38.145Z,96.10
2019-01-08T15:24:06.335Z,96.20
2019-01-08T15:26:34.544Z,96.00
2019-01-08T15:29:02.751Z,96.00
2019-01-08T15:31:30.954Z,95.50
2019-01-08T15:33:59.172Z,95.70
2019-01-08T15:36:27.395Z,95.60
2019-01-08T15:38:55.582Z,95.60
2019-01-08T15:41:23.802Z,95.80
2019-01-08T15:43:52.000Z,96.00
2019-01-08T15:46:20.191Z,95.70
2019-01-08T15:48:48.419Z,95.80
2019-01-08T15:51:16.651Z,96.00
2019-01-08T15:53:44.866Z,96.00
2019-01-08T15:56:13.079Z,95.90
2019-01-08T15:58:41.270Z,96.20
2019-01-08T16:01:09.480Z,96.30
2019-01-08T16:03:37.667Z,96.20
2019-01-08T16:06:05.906Z,96.50
2019-01-08T16:08:34.065Z,96.30
2019-01-08T16:11:02.271Z,96.60
2019-01-08T16:13:30.490Z,96.40
2019-01-08T16:15:58.691Z,96.60
2019-01-08T16:18:26.910Z,96.60
2019-01-08T16:20:55.134Z,96.60
2019-01-08T16:23:23.335Z,96.60
2019-01-08T16:25:51.686Z,96.90
2019-01-08T16:28:19.876Z,96.80
2019-01-08T16:30:48.099Z,97.00
2019-01-08T16:33:16.542Z,97.00
2019-01-08T16:35:44.870Z,96.90
2019-01-08T16:38:13.085Z,97.10
2019-01-08T16:40:41.274Z,97.00
2019-01-08T16:43:09.519Z,96.80
2019-01-08T16:45:37.698Z,96.80
2019-01-08T16:48:05.890Z,96.80
2019-01-08T16:50:34.106Z,96.90
2019-01-08T16:53:02.310Z,97.00
2019-01-08T16:55:30.542Z,96.80
2019-01-08T16:57:58.735Z,96.80
2019-01-08T17:00:26.917Z,96.80
2019-01-08T17:02:55.145Z,97.00
2019-01-08T17:05:23.347Z,96.90
2019-01-08T17:07:51.558Z,96.90
2019-01-08T17:10:19.763Z,97.00
2019-01-08T17:12:47.958Z,96.90
2019-01-08T17:15:16.162Z,96.80
2019-01-08T17:17:44.366Z,96.80
2019-01-08T17:20:12.590Z,96.70
2019-01-08T17:22:40.787Z,97.00
2019-01-08T17:25:08.987Z,97.10
2019-01-08T17:27:37.191Z,97.40
2019-01-08T17:30:07.543Z,97.00
2019-01-08T17:32:35.766Z,97.10
2019-01-08T17:35:04.140Z,97.30
2019-01-08T17:37:32.314Z,97.00
2019-01-08T17:40:00.526Z,97.20
2019-01-08T17:42:28.731Z,97.20
2019-01-08T17:44:57.124Z,97.20
2019-01-08T17:47:25.314Z,97.10
2019-01-08T17:49:53.502Z,97.20
2019-01-08T17:52:21.723Z,97.50
2019-01-08T17:54:49.914Z,97.40
2019-01-08T17:57:18.134Z,97.50
2019-01-08T17:59:46.342Z,97.30
2019-01-08T18:02:14.539Z,97.30
2019-01-08T18:04:42.759Z,97.30
2019-01-08T18:07:10.942Z,97.30
2019-01-08T18:09:39.170Z,97.70
2019-01-08T18:12:07.363Z,97.50
2019-01-08T18:14:36.429Z,97.40
2019-01-08T18:17:04.806Z,97.40
2019-01-08T18:19:32.998Z,97.50
2019-01-08T18:22:01.190Z,97.40
2019-01-08T18:24:29.398Z,97.30
2019-01-08T18:26:57.583Z,97.30
2019-01-08T18:29:25.770Z,97.40
2019-01-08T18:31:54.371Z,97.20
2019-01-08T18:34:22.650Z,97.10
2019-01-08T18:36:50.842Z,97.00
2019-01-08T18:39:19.074Z,97.10
2019-01-08T18:41:47.938Z,97.00
2019-01-08T18:44:16.126Z,97.20
2019-01-08T18:46:44.334Z,97.30
2019-01-08T18:49:12.530Z,97.20
2019-01-08T18:51:40.727Z,96.90
2019-01-08T18:54:08.969Z,96.70
2019-01-08T18:56:37.203Z,96.80
2019-01-08T18:59:05.410Z,96.70
2019-01-08T19:01:33.634Z,96.50
2019-01-08T19:04:01.823Z,96.50
2019-01-08T19:06:30.019Z,96.80
2019-01-08T19:09:24.003Z,97.00
2019-01-08T19:11:52.418Z,96.90
2019-01-08T19:14:23.251Z,96.60
2019-01-08T19:16:51.462Z,96.10
2019-01-08T19:19:19.647Z,96.50
2019-01-08T19:21:47.843Z,96.50
2019-01-08T19:24:16.070Z,96.50
2019-01-08T19:26:44.259Z,96.40
2019-01-08T19:29:12.454Z,96.20
2019-01-08T19:31:40.667Z,96.00
2019-01-08T19:34:09.626Z,96.20
2019-01-08T19:36:37.926Z,95.90
2019-01-08T19:39:06.990Z,95.70
2019-01-08T19:41:35.177Z,95.80
2019-01-08T19:44:03.435Z,95.90
2019-01-08T19:46:32.033Z,96.10
2019-01-08T19:49:00.210Z,96.00
2019-01-08T19:51:28.399Z,96.20
2019-01-08T19:53:56.620Z,96.20
2019-01-08T19:56:24.810Z,95.90
2019-01-08T19:58:52.998Z,95.90
2019-01-08T20:01:21.510Z,96.00
2019-01-08T20:03:49.706Z,96.10
2019-01-08T20:06:17.890Z,95.60
2019-01-08T20:08:48.689Z,95.90
2019-01-08T20:11:16.022Z,96.00
2019-01-08T20:13:44.215Z,96.00
2019-01-08T20:16:12.434Z,95.80
2019-01-08T20:18:45.305Z,95.10
2019-01-08T20:21:11.354Z,95.20
2019-01-08T20:23:39.578Z,95.00
2019-01-08T20:26:07.786Z,95.00
2019-01-08T20:28:35.970Z,94.60
2019-01-08T20:31:04.170Z,94.50
2019-01-08T20:33:32.454Z,94.50
2019-01-08T20:36:00.670Z,94.30
2019-01-08T20:38:28.880Z,94.70
2019-01-08T20:40:57.078Z,94.40
2019-01-08T20:43:25.284Z,94.70
2019-01-08T20:45:53.507Z,94.80
2019-01-08T20:48:21.690Z,95.00
2019-01-08T20:50:49.879Z,95.10
2019-01-08T20:53:18.115Z,95.60
2019-01-08T20:55:46.302Z,95.60
2019-01-08T20:58:14.493Z,95.70
2019-01-08T21:00:42.740Z,96.00
2019-01-08T21:03:10.927Z,96.30
2019-01-08T21:05:39.124Z,96.10
2019-01-08T21:08:10.634Z,96.60
2019-01-08T21:10:38.828Z,96.70
2019-01-08T21:13:07.019Z,96.40
2019-01-08T21:15:35.235Z,96.50
2019-01-08T21:18:03.479Z,96.40
2019-01-08T21:20:31.708Z,96.10
2019-01-08T21:22:59.946Z,95.80
2019-01-08T21:25:28.142Z,96.00
2019-01-08T21:27:56.337Z,95.60
2019-01-08T21:30:24.563Z,95.80
2019-01-08T21:32:52.756Z,95.60
2019-01-08T21:35:20.994Z,95.70
2019-01-08T21:37:50.493Z,95.60
2019-01-08T21:40:26.235Z,95.50
2019-01-08T21:42:54.467Z,95.40
2019-01-08T21:45:24.308Z,95.20
2019-01-08T21:47:55.142Z,95.10
2019-01-08T21:50:23.383Z,95.20
2019-01-08T21:52:51.582Z,95.10
2019-01-08T21:55:19.775Z,94.80
2019-01-08T21:57:58.723Z,94.70
2019-01-08T22:00:26.926Z,94.80
2019-01-08T22:02:55.122Z,94.60
2019-01-08T22:05:23.363Z,94.50
2019-01-08T22:07:51.571Z,94.60
2019-01-08T22:10:19.787Z,94.30
2019-01-08T22:12:48.046Z,94.70
2019-01-08T22:15:16.279Z,94.80
2019-01-08T22:17:44.471Z,94.80
2019-01-08T22:20:12.695Z,95.20
2019-01-08T22:22:40.954Z,95.00
2019-01-08T22:25:09.165Z,94.80
2019-01-08T22:27:37.373Z,95.10
2019-01-08T22:30:07.349Z,95.40
2019-01-08T22:32:35.550Z,95.00
2019-01-08T22:35:03.800Z,94.90
2019-01-08T22:37:31.999Z,94.90
2019-01-08T22:40:00.326Z,94.80
2019-01-08T22:42:28.615Z,95.10
2019-01-08T22:44:56.831Z,94.90
2019-01-08T22:47:25.037Z,95.20
2019-01-08T22:49:53.259Z,95.20
2019-01-08T22:52:21.471Z,95.30
2019-01-08T22:54:50.609Z,95.10
2019-01-08T22:57:18.833Z,94.80
2019-01-08T22:59:47.018Z,94.80
2019-01-08T23:02:15.214Z,94.80
2019-01-08T23:04:43.431Z,94.70
2019-01-08T23:07:11.644Z,95.40
2019-01-08T23:09:39.840Z,94.80
2019-01-08T23:12:08.072Z,95.00
2019-01-08T23:14:36.251Z,95.00
2019-01-08T23:17:04.448Z,95.00
2019-01-08T23:19:32.692Z,94.80
2019-01-08T23:22:00.946Z,94.90
2019-01-08T23:24:29.936Z,95.60
2019-01-08T23:26:58.193Z,95.40
2019-01-08T23:29:26.404Z,95.70
2019-01-08T23:31:54.594Z,95.50
2019-01-08T23:34:22.810Z,95.50
2019-01-08T23:36:51.000Z,95.60
2019-01-08T23:39:19.185Z,95.30
2019-01-08T23:41:47.415Z,95.30
2019-01-08T23:44:16.462Z,95.50
2019-01-08T23:46:44.655Z,95.20
2019-01-08T23:49:12.877Z,95.40
2019-01-08T23:51:41.100Z,95.10
2019-01-08T23:54:09.349Z,95.00
2019-01-08T23:56:37.570Z,95.00
2019-01-08T23:59:05.763Z,95.10
